sensor_id;sensor_type;location;lat;lon;timestamp;P1;durP1;ratioP1;P2;durP2;ratioP2
16792;SDS011;8513;42.662;23.350;2023-05-29T00:00:30;6.90;;;3.15;;
16792;SDS011;8513;42.662;23.350;2023-05-29T00:02:55;3.80;;;3.10;;
16792;SDS011;8513;42.662;23.350;2023-05-29T00:05:20;3.95;;;3.17;;
16792;SDS011;8513;42.662;23.350;2023-05-29T00:07:46;3.67;;;2.80;;
16792;SDS011;8513;42.662;23.350;2023-05-29T00:10:13;4.10;;;3.03;;
16792;SDS011;8513;42.662;23.350;2023-05-29T00:12:38;4.63;;;3.03;;
16792;SDS011;8513;42.662;23.350;2023-05-29T00:15:04;3.10;;;2.72;;
16792;SDS011;8513;42.662;23.350;2023-05-29T00:17:30;3.80;;;3.10;;
16792;SDS011;8513;42.662;23.350;2023-05-29T00:19:57;3.55;;;2.72;;
16792;SDS011;8513;42.662;23.350;2023-05-29T00:22:24;4.25;;;2.95;;
16792;SDS011;8513;42.662;23.350;2023-05-29T00:24:50;3.55;;;2.65;;
16792;SDS011;8513;42.662;23.350;2023-05-29T00:27:15;4.05;;;2.92;;
16792;SDS011;8513;42.662;23.350;2023-05-29T00:29:41;3.33;;;2.85;;
16792;SDS011;8513;42.662;23.350;2023-05-29T00:32:06;2.63;;;2.40;;
16792;SDS011;8513;42.662;23.350;2023-05-29T00:34:32;3.15;;;2.85;;
16792;SDS011;8513;42.662;23.350;2023-05-29T00:36:58;3.03;;;2.72;;
16792;SDS011;8513;42.662;23.350;2023-05-29T00:39:23;4.18;;;3.13;;
16792;SDS011;8513;42.662;23.350;2023-05-29T00:41:48;3.25;;;2.65;;
16792;SDS011;8513;42.662;23.350;2023-05-29T00:44:20;2.95;;;2.65;;
16792;SDS011;8513;42.662;23.350;2023-05-29T00:46:47;3.50;;;2.80;;
16792;SDS011;8513;42.662;23.350;2023-05-29T00:49:14;3.53;;;2.90;;
16792;SDS011;8513;42.662;23.350;2023-05-29T00:51:41;3.28;;;2.97;;
16792;SDS011;8513;42.662;23.350;2023-05-29T00:54:08;3.92;;;2.90;;
16792;SDS011;8513;42.662;23.350;2023-05-29T00:56:38;5.43;;;2.83;;
16792;SDS011;8513;42.662;23.350;2023-05-29T00:59:07;3.65;;;2.50;;
16792;SDS011;8513;42.662;23.350;2023-05-29T01:01:33;3.83;;;3.00;;
16792;SDS011;8513;42.662;23.350;2023-05-29T01:04:00;4.20;;;3.20;;
16792;SDS011;8513;42.662;23.350;2023-05-29T01:06:28;3.28;;;2.83;;
16792;SDS011;8513;42.662;23.350;2023-05-29T01:08:54;3.47;;;2.72;;
16792;SDS011;8513;42.662;23.350;2023-05-29T01:14:31;3.03;;;2.72;;
16792;SDS011;8513;42.662;23.350;2023-05-29T01:17:21;4.65;;;3.35;;
16792;SDS011;8513;42.662;23.350;2023-05-29T01:20:06;3.95;;;3.03;;
16792;SDS011;8513;42.662;23.350;2023-05-29T01:22:47;2.72;;;2.45;;
16792;SDS011;8513;42.662;23.350;2023-05-29T01:28:33;4.68;;;3.13;;
16792;SDS011;8513;42.662;23.350;2023-05-29T01:31:13;3.22;;;2.92;;
16792;SDS011;8513;42.662;23.350;2023-05-29T01:33:42;4.72;;;3.30;;
16792;SDS011;8513;42.662;23.350;2023-05-29T01:36:16;3.47;;;2.97;;
16792;SDS011;8513;42.662;23.350;2023-05-29T01:38:41;3.45;;;3.03;;
16792;SDS011;8513;42.662;23.350;2023-05-29T01:41:07;4.10;;;3.10;;
16792;SDS011;8513;42.662;23.350;2023-05-29T01:43:32;5.15;;;3.47;;
16792;SDS011;8513;42.662;23.350;2023-05-29T01:45:58;4.15;;;3.30;;
16792;SDS011;8513;42.662;23.350;2023-05-29T01:48:24;3.40;;;2.80;;
16792;SDS011;8513;42.662;23.350;2023-05-29T01:50:50;3.28;;;2.97;;
16792;SDS011;8513;42.662;23.350;2023-05-29T01:53:16;4.32;;;2.78;;
16792;SDS011;8513;42.662;23.350;2023-05-29T01:55:41;3.83;;;3.08;;
16792;SDS011;8513;42.662;23.350;2023-05-29T01:58:07;5.03;;;3.30;;
16792;SDS011;8513;42.662;23.350;2023-05-29T02:00:33;3.58;;;3.28;;
16792;SDS011;8513;42.662;23.350;2023-05-29T02:02:58;3.45;;;3.15;;
16792;SDS011;8513;42.662;23.350;2023-05-29T02:05:24;3.70;;;3.00;;
16792;SDS011;8513;42.662;23.350;2023-05-29T02:07:49;4.25;;;3.28;;
16792;SDS011;8513;42.662;23.350;2023-05-29T02:10:14;3.65;;;3.28;;
16792;SDS011;8513;42.662;23.350;2023-05-29T02:12:40;3.38;;;2.90;;
16792;SDS011;8513;42.662;23.350;2023-05-29T02:15:06;3.55;;;3.22;;
16792;SDS011;8513;42.662;23.350;2023-05-29T02:17:32;4.45;;;3.40;;
16792;SDS011;8513;42.662;23.350;2023-05-29T02:19:58;4.53;;;3.67;;
16792;SDS011;8513;42.662;23.350;2023-05-29T02:22:24;4.00;;;3.60;;
16792;SDS011;8513;42.662;23.350;2023-05-29T02:24:49;3.10;;;2.80;;
16792;SDS011;8513;42.662;23.350;2023-05-29T02:27:15;3.65;;;3.00;;
16792;SDS011;8513;42.662;23.350;2023-05-29T02:29:40;4.07;;;3.67;;
16792;SDS011;8513;42.662;23.350;2023-05-29T02:32:06;3.45;;;3.15;;
16792;SDS011;8513;42.662;23.350;2023-05-29T02:34:31;3.50;;;3.20;;
16792;SDS011;8513;42.662;23.350;2023-05-29T02:36:57;4.43;;;3.50;;
16792;SDS011;8513;42.662;23.350;2023-05-29T02:39:22;3.50;;;3.20;;
16792;SDS011;8513;42.662;23.350;2023-05-29T02:41:48;4.30;;;3.05;;
16792;SDS011;8513;42.662;23.350;2023-05-29T02:44:13;3.35;;;2.72;;
16792;SDS011;8513;42.662;23.350;2023-05-29T02:46:39;4.55;;;3.42;;
16792;SDS011;8513;42.662;23.350;2023-05-29T02:49:04;4.35;;;3.17;;
16792;SDS011;8513;42.662;23.350;2023-05-29T02:51:30;4.63;;;3.45;;
16792;SDS011;8513;42.662;23.350;2023-05-29T02:53:57;4.25;;;3.55;;
16792;SDS011;8513;42.662;23.350;2023-05-29T02:56:22;3.95;;;2.80;;
16792;SDS011;8513;42.662;23.350;2023-05-29T02:58:49;3.78;;;3.15;;
16792;SDS011;8513;42.662;23.350;2023-05-29T03:01:15;6.38;;;3.58;;
16792;SDS011;8513;42.662;23.350;2023-05-29T03:03:41;3.50;;;3.20;;
16792;SDS011;8513;42.662;23.350;2023-05-29T03:06:07;3.67;;;3.30;;
16792;SDS011;8513;42.662;23.350;2023-05-29T03:08:34;4.25;;;3.15;;
16792;SDS011;8513;42.662;23.350;2023-05-29T03:11:00;4.53;;;3.42;;
16792;SDS011;8513;42.662;23.350;2023-05-29T03:13:25;3.78;;;3.38;;
16792;SDS011;8513;42.662;23.350;2023-05-29T03:15:50;4.82;;;3.67;;
16792;SDS011;8513;42.662;23.350;2023-05-29T03:18:16;4.13;;;3.45;;
16792;SDS011;8513;42.662;23.350;2023-05-29T03:20:41;4.45;;;3.60;;
16792;SDS011;8513;42.662;23.350;2023-05-29T03:23:07;5.07;;;3.35;;
16792;SDS011;8513;42.662;23.350;2023-05-29T03:25:32;4.95;;;3.55;;
16792;SDS011;8513;42.662;23.350;2023-05-29T03:27:57;3.70;;;3.00;;
16792;SDS011;8513;42.662;23.350;2023-05-29T03:30:23;4.57;;;3.47;;
16792;SDS011;8513;42.662;23.350;2023-05-29T03:32:48;5.53;;;3.95;;
16792;SDS011;8513;42.662;23.350;2023-05-29T03:35:14;4.07;;;3.67;;
16792;SDS011;8513;42.662;23.350;2023-05-29T03:37:39;3.85;;;3.38;;
16792;SDS011;8513;42.662;23.350;2023-05-29T03:40:05;4.57;;;3.80;;
16792;SDS011;8513;42.662;23.350;2023-05-29T03:42:31;5.10;;;3.92;;
16792;SDS011;8513;42.662;23.350;2023-05-29T03:44:57;7.05;;;3.70;;
16792;SDS011;8513;42.662;23.350;2023-05-29T03:47:22;6.07;;;4.20;;
16792;SDS011;8513;42.662;23.350;2023-05-29T03:49:48;5.10;;;3.53;;
16792;SDS011;8513;42.662;23.350;2023-05-29T03:52:13;4.28;;;3.83;;
16792;SDS011;8513;42.662;23.350;2023-05-29T03:54:39;4.43;;;3.80;;
16792;SDS011;8513;42.662;23.350;2023-05-29T03:57:04;5.68;;;3.78;;
16792;SDS011;8513;42.662;23.350;2023-05-29T03:59:31;6.72;;;3.88;;
16792;SDS011;8513;42.662;23.350;2023-05-29T04:01:57;5.13;;;3.95;;
16792;SDS011;8513;42.662;23.350;2023-05-29T04:04:22;5.85;;;4.65;;
16792;SDS011;8513;42.662;23.350;2023-05-29T04:06:48;7.95;;;5.22;;
16792;SDS011;8513;42.662;23.350;2023-05-29T04:09:13;5.72;;;4.63;;
16792;SDS011;8513;42.662;23.350;2023-05-29T04:11:39;5.65;;;4.53;;
16792;SDS011;8513;42.662;23.350;2023-05-29T04:14:06;7.28;;;5.30;;
16792;SDS011;8513;42.662;23.350;2023-05-29T04:16:32;7.47;;;4.50;;
16792;SDS011;8513;42.662;23.350;2023-05-29T04:18:57;5.68;;;4.47;;
16792;SDS011;8513;42.662;23.350;2023-05-29T04:21:22;4.60;;;4.03;;
16792;SDS011;8513;42.662;23.350;2023-05-29T04:23:48;6.10;;;4.03;;
16792;SDS011;8513;42.662;23.350;2023-05-29T04:26:13;7.65;;;4.53;;
16792;SDS011;8513;42.662;23.350;2023-05-29T04:28:39;7.15;;;4.75;;
16792;SDS011;8513;42.662;23.350;2023-05-29T04:31:04;5.05;;;4.45;;
16792;SDS011;8513;42.662;23.350;2023-05-29T04:33:33;5.57;;;4.25;;
16792;SDS011;8513;42.662;23.350;2023-05-29T04:36:02;5.05;;;4.28;;
16792;SDS011;8513;42.662;23.350;2023-05-29T04:38:28;5.45;;;4.38;;
16792;SDS011;8513;42.662;23.350;2023-05-29T04:40:54;4.65;;;3.78;;
16792;SDS011;8513;42.662;23.350;2023-05-29T04:43:23;6.20;;;4.35;;
16792;SDS011;8513;42.662;23.350;2023-05-29T04:45:51;6.55;;;4.18;;
16792;SDS011;8513;42.662;23.350;2023-05-29T04:48:17;4.97;;;4.13;;
16792;SDS011;8513;42.662;23.350;2023-05-29T04:50:43;5.10;;;3.72;;
16792;SDS011;8513;42.662;23.350;2023-05-29T04:53:09;6.18;;;4.10;;
16792;SDS011;8513;42.662;23.350;2023-05-29T04:55:35;6.25;;;5.47;;
16792;SDS011;8513;42.662;23.350;2023-05-29T04:58:01;6.32;;;4.63;;
16792;SDS011;8513;42.662;23.350;2023-05-29T05:00:27;6.25;;;4.85;;
16792;SDS011;8513;42.662;23.350;2023-05-29T05:02:52;6.38;;;4.80;;
16792;SDS011;8513;42.662;23.350;2023-05-29T05:05:18;6.57;;;4.57;;
16792;SDS011;8513;42.662;23.350;2023-05-29T05:07:43;5.57;;;4.68;;
16792;SDS011;8513;42.662;23.350;2023-05-29T05:10:09;4.57;;;3.75;;
16792;SDS011;8513;42.662;23.350;2023-05-29T05:12:34;5.78;;;3.50;;
16792;SDS011;8513;42.662;23.350;2023-05-29T05:15:00;5.15;;;3.60;;
16792;SDS011;8513;42.662;23.350;2023-05-29T05:17:25;4.70;;;3.83;;
16792;SDS011;8513;42.662;23.350;2023-05-29T05:19:50;5.63;;;4.10;;
16792;SDS011;8513;42.662;23.350;2023-05-29T05:22:18;4.28;;;3.60;;
16792;SDS011;8513;42.662;23.350;2023-05-29T05:24:44;3.65;;;3.35;;
16792;SDS011;8513;42.662;23.350;2023-05-29T05:27:10;5.50;;;3.58;;
16792;SDS011;8513;42.662;23.350;2023-05-29T05:29:35;5.82;;;3.78;;
16792;SDS011;8513;42.662;23.350;2023-05-29T05:32:00;5.35;;;3.60;;
16792;SDS011;8513;42.662;23.350;2023-05-29T05:34:26;5.50;;;3.95;;
16792;SDS011;8513;42.662;23.350;2023-05-29T05:36:51;4.75;;;3.90;;
16792;SDS011;8513;42.662;23.350;2023-05-29T05:39:17;3.90;;;3.22;;
16792;SDS011;8513;42.662;23.350;2023-05-29T05:41:42;4.50;;;3.80;;
16792;SDS011;8513;42.662;23.350;2023-05-29T05:44:08;3.33;;;2.97;;
16792;SDS011;8513;42.662;23.350;2023-05-29T05:46:33;3.42;;;2.75;;
16792;SDS011;8513;42.662;23.350;2023-05-29T05:48:59;3.83;;;3.10;;
16792;SDS011;8513;42.662;23.350;2023-05-29T05:51:26;3.75;;;2.88;;
16792;SDS011;8513;42.662;23.350;2023-05-29T05:53:51;3.35;;;2.55;;
16792;SDS011;8513;42.662;23.350;2023-05-29T05:56:17;3.78;;;2.78;;
16792;SDS011;8513;42.662;23.350;2023-05-29T05:58:43;3.75;;;3.17;;
16792;SDS011;8513;42.662;23.350;2023-05-29T06:01:08;3.53;;;2.80;;
16792;SDS011;8513;42.662;23.350;2023-05-29T06:03:34;3.33;;;3.03;;
16792;SDS011;8513;42.662;23.350;2023-05-29T06:06:00;3.75;;;2.72;;
16792;SDS011;8513;42.662;23.350;2023-05-29T06:08:25;4.60;;;2.88;;
16792;SDS011;8513;42.662;23.350;2023-05-29T06:10:51;2.70;;;2.38;;
16792;SDS011;8513;42.662;23.350;2023-05-29T06:13:17;3.10;;;2.42;;
16792;SDS011;8513;42.662;23.350;2023-05-29T06:15:43;3.22;;;2.47;;
16792;SDS011;8513;42.662;23.350;2023-05-29T06:18:09;2.75;;;2.50;;
16792;SDS011;8513;42.662;23.350;2023-05-29T06:20:34;2.83;;;2.53;;
16792;SDS011;8513;42.662;23.350;2023-05-29T06:23:00;4.25;;;2.45;;
16792;SDS011;8513;42.662;23.350;2023-05-29T06:25:25;2.90;;;2.30;;
16792;SDS011;8513;42.662;23.350;2023-05-29T06:27:58;3.35;;;2.65;;
16792;SDS011;8513;42.662;23.350;2023-05-29T06:30:24;3.17;;;2.60;;
16792;SDS011;8513;42.662;23.350;2023-05-29T06:32:49;2.50;;;2.30;;
16792;SDS011;8513;42.662;23.350;2023-05-29T06:35:15;2.78;;;1.98;;
16792;SDS011;8513;42.662;23.350;2023-05-29T06:37:40;2.90;;;2.17;;
16792;SDS011;8513;42.662;23.350;2023-05-29T06:40:06;1.88;;;1.55;;
16792;SDS011;8513;42.662;23.350;2023-05-29T06:42:31;3.78;;;1.50;;
16792;SDS011;8513;42.662;23.350;2023-05-29T06:44:57;1.67;;;1.52;;
16792;SDS011;8513;42.662;23.350;2023-05-29T06:47:22;2.20;;;1.80;;
16792;SDS011;8513;42.662;23.350;2023-05-29T06:49:48;1.90;;;1.75;;
16792;SDS011;8513;42.662;23.350;2023-05-29T06:52:13;1.33;;;1.23;;
16792;SDS011;8513;42.662;23.350;2023-05-29T06:54:39;1.30;;;1.20;;
16792;SDS011;8513;42.662;23.350;2023-05-29T06:57:05;1.27;;;1.20;;
16792;SDS011;8513;42.662;23.350;2023-05-29T06:59:30;2.55;;;1.20;;
16792;SDS011;8513;42.662;23.350;2023-05-29T07:01:55;1.27;;;1.00;;
16792;SDS011;8513;42.662;23.350;2023-05-29T07:04:21;2.40;;;1.38;;
16792;SDS011;8513;42.662;23.350;2023-05-29T07:06:46;1.20;;;1.10;;
16792;SDS011;8513;42.662;23.350;2023-05-29T07:09:12;1.58;;;1.40;;
16792;SDS011;8513;42.662;23.350;2023-05-29T07:11:38;1.52;;;1.35;;
16792;SDS011;8513;42.662;23.350;2023-05-29T07:14:04;1.60;;;1.50;;
16792;SDS011;8513;42.662;23.350;2023-05-29T07:16:29;1.60;;;1.48;;
16792;SDS011;8513;42.662;23.350;2023-05-29T07:18:54;1.60;;;1.50;;
16792;SDS011;8513;42.662;23.350;2023-05-29T07:21:20;1.88;;;1.52;;
16792;SDS011;8513;42.662;23.350;2023-05-29T07:23:45;1.77;;;1.67;;
16792;SDS011;8513;42.662;23.350;2023-05-29T07:26:11;2.30;;;1.55;;
16792;SDS011;8513;42.662;23.350;2023-05-29T07:28:36;1.70;;;1.60;;
16792;SDS011;8513;42.662;23.350;2023-05-29T07:31:01;2.05;;;1.50;;
16792;SDS011;8513;42.662;23.350;2023-05-29T07:33:27;2.30;;;1.65;;
16792;SDS011;8513;42.662;23.350;2023-05-29T07:35:52;1.27;;;1.17;;
16792;SDS011;8513;42.662;23.350;2023-05-29T07:38:18;1.42;;;1.33;;
16792;SDS011;8513;42.662;23.350;2023-05-29T07:40:43;2.00;;;1.77;;
16792;SDS011;8513;42.662;23.350;2023-05-29T07:43:09;2.13;;;1.90;;
16792;SDS011;8513;42.662;23.350;2023-05-29T07:45:35;1.50;;;1.40;;
16792;SDS011;8513;42.662;23.350;2023-05-29T07:48:00;1.50;;;1.40;;
16792;SDS011;8513;42.662;23.350;2023-05-29T07:50:26;1.42;;;1.33;;
16792;SDS011;8513;42.662;23.350;2023-05-29T07:52:51;1.40;;;1.30;;
16792;SDS011;8513;42.662;23.350;2023-05-29T07:55:17;1.80;;;1.70;;
16792;SDS011;8513;42.662;23.350;2023-05-29T07:57:43;1.70;;;1.60;;
16792;SDS011;8513;42.662;23.350;2023-05-29T08:00:08;2.13;;;1.92;;
16792;SDS011;8513;42.662;23.350;2023-05-29T08:02:38;1.85;;;1.60;;
16792;SDS011;8513;42.662;23.350;2023-05-29T08:05:03;1.73;;;1.48;;
16792;SDS011;8513;42.662;23.350;2023-05-29T08:07:29;1.85;;;1.60;;
16792;SDS011;8513;42.662;23.350;2023-05-29T08:09:55;1.98;;;1.52;;
16792;SDS011;8513;42.662;23.350;2023-05-29T08:12:21;2.13;;;1.92;;
16792;SDS011;8513;42.662;23.350;2023-05-29T08:14:46;2.35;;;2.15;;
16792;SDS011;8513;42.662;23.350;2023-05-29T08:17:12;4.07;;;2.53;;
16792;SDS011;8513;42.662;23.350;2023-05-29T08:19:37;3.20;;;2.90;;
16792;SDS011;8513;42.662;23.350;2023-05-29T08:22:03;2.00;;;1.70;;
16792;SDS011;8513;42.662;23.350;2023-05-29T08:24:28;1.40;;;1.30;;
16792;SDS011;8513;42.662;23.350;2023-05-29T08:26:54;1.70;;;1.60;;
16792;SDS011;8513;42.662;23.350;2023-05-29T08:29:19;2.22;;;2.03;;
16792;SDS011;8513;42.662;23.350;2023-05-29T08:31:44;2.03;;;1.83;;
16792;SDS011;8513;42.662;23.350;2023-05-29T08:34:11;1.95;;;1.85;;
16792;SDS011;8513;42.662;23.350;2023-05-29T08:36:36;2.00;;;1.80;;
16792;SDS011;8513;42.662;23.350;2023-05-29T08:39:02;1.63;;;1.52;;
16792;SDS011;8513;42.662;23.350;2023-05-29T08:44:21;1.77;;;1.58;;
16792;SDS011;8513;42.662;23.350;2023-05-29T08:46:48;1.75;;;1.65;;
16792;SDS011;8513;42.662;23.350;2023-05-29T08:49:19;2.63;;;1.55;;
16792;SDS011;8513;42.662;23.350;2023-05-29T08:51:47;1.92;;;1.73;;
16792;SDS011;8513;42.662;23.350;2023-05-29T08:54:19;2.28;;;1.80;;
16792;SDS011;8513;42.662;23.350;2023-05-29T08:56:45;2.40;;;1.92;;
16792;SDS011;8513;42.662;23.350;2023-05-29T08:59:11;1.65;;;1.55;;
16792;SDS011;8513;42.662;23.350;2023-05-29T09:01:37;2.38;;;1.70;;
16792;SDS011;8513;42.662;23.350;2023-05-29T09:04:04;1.60;;;1.50;;
16792;SDS011;8513;42.662;23.350;2023-05-29T09:06:29;2.08;;;1.92;;
16792;SDS011;8513;42.662;23.350;2023-05-29T09:08:55;1.98;;;1.85;;
16792;SDS011;8513;42.662;23.350;2023-05-29T09:11:22;2.30;;;2.10;;
16792;SDS011;8513;42.662;23.350;2023-05-29T09:13:48;2.17;;;1.92;;
16792;SDS011;8513;42.662;23.350;2023-05-29T09:16:15;1.88;;;1.77;;
16792;SDS011;8513;42.662;23.350;2023-05-29T09:18:41;2.00;;;1.77;;
16792;SDS011;8513;42.662;23.350;2023-05-29T09:21:10;2.10;;;1.90;;
16792;SDS011;8513;42.662;23.350;2023-05-29T09:23:51;2.17;;;1.98;;
16792;SDS011;8513;42.662;23.350;2023-05-29T09:26:17;2.58;;;2.38;;
16792;SDS011;8513;42.662;23.350;2023-05-29T09:28:45;2.45;;;2.25;;
16792;SDS011;8513;42.662;23.350;2023-05-29T09:31:14;2.10;;;2.00;;
16792;SDS011;8513;42.662;23.350;2023-05-29T09:33:49;3.75;;;1.92;;
16792;SDS011;8513;42.662;23.350;2023-05-29T09:36:21;2.00;;;1.80;;
16792;SDS011;8513;42.662;23.350;2023-05-29T09:38:47;2.55;;;1.88;;
16792;SDS011;8513;42.662;23.350;2023-05-29T09:41:13;2.20;;;2.00;;
16792;SDS011;8513;42.662;23.350;2023-05-29T09:43:45;2.10;;;1.90;;
16792;SDS011;8513;42.662;23.350;2023-05-29T09:46:12;1.92;;;1.83;;
16792;SDS011;8513;42.662;23.350;2023-05-29T09:48:42;2.15;;;1.95;;
16792;SDS011;8513;42.662;23.350;2023-05-29T09:51:11;1.90;;;1.80;;
16792;SDS011;8513;42.662;23.350;2023-05-29T09:53:45;2.30;;;2.10;;
16792;SDS011;8513;42.662;23.350;2023-05-29T09:56:11;2.00;;;1.90;;
16792;SDS011;8513;42.662;23.350;2023-05-29T09:58:40;2.50;;;2.30;;
16792;SDS011;8513;42.662;23.350;2023-05-29T10:01:11;2.35;;;1.92;;
16792;SDS011;8513;42.662;23.350;2023-05-29T10:03:37;2.10;;;2.00;;
16792;SDS011;8513;42.662;23.350;2023-05-29T10:06:03;1.73;;;1.63;;
16792;SDS011;8513;42.662;23.350;2023-05-29T10:08:30;1.80;;;1.70;;
16792;SDS011;8513;42.662;23.350;2023-05-29T10:10:59;1.85;;;1.75;;
16792;SDS011;8513;42.662;23.350;2023-05-29T10:13:27;2.17;;;2.00;;
16792;SDS011;8513;42.662;23.350;2023-05-29T10:15:56;1.80;;;1.60;;
16792;SDS011;8513;42.662;23.350;2023-05-29T10:18:24;2.10;;;1.90;;
16792;SDS011;8513;42.662;23.350;2023-05-29T10:20:51;1.98;;;1.85;;
16792;SDS011;8513;42.662;23.350;2023-05-29T10:23:21;1.77;;;1.67;;
16792;SDS011;8513;42.662;23.350;2023-05-29T10:25:54;2.22;;;2.03;;
16792;SDS011;8513;42.662;23.350;2023-05-29T10:28:29;2.63;;;2.42;;
16792;SDS011;8513;42.662;23.350;2023-05-29T10:31:17;3.58;;;2.40;;
16792;SDS011;8513;42.662;23.350;2023-05-29T10:36:28;2.75;;;1.92;;
16792;SDS011;8513;42.662;23.350;2023-05-29T10:39:08;2.22;;;1.90;;
16792;SDS011;8513;42.662;23.350;2023-05-29T10:41:33;2.05;;;1.95;;
16792;SDS011;8513;42.662;23.350;2023-05-29T10:44:04;2.13;;;1.92;;
16792;SDS011;8513;42.662;23.350;2023-05-29T10:49:23;2.53;;;1.77;;
16792;SDS011;8513;42.662;23.350;2023-05-29T10:51:49;1.88;;;1.77;;
16792;SDS011;8513;42.662;23.350;2023-05-29T10:54:15;1.80;;;1.50;;
16792;SDS011;8513;42.662;23.350;2023-05-29T10:56:44;1.98;;;1.88;;
16792;SDS011;8513;42.662;23.350;2023-05-29T10:59:17;2.55;;;1.92;;
16792;SDS011;8513;42.662;23.350;2023-05-29T11:01:43;1.98;;;1.88;;
16792;SDS011;8513;42.662;23.350;2023-05-29T11:06:40;2.58;;;2.38;;
16792;SDS011;8513;42.662;23.350;2023-05-29T11:09:07;2.05;;;1.90;;
16792;SDS011;8513;42.662;23.350;2023-05-29T11:12:14;1.85;;;1.60;;
16792;SDS011;8513;42.662;23.350;2023-05-29T11:15:00;3.05;;;2.40;;
16792;SDS011;8513;42.662;23.350;2023-05-29T11:17:32;2.90;;;2.10;;
16792;SDS011;8513;42.662;23.350;2023-05-29T11:25:25;2.80;;;2.03;;
16792;SDS011;8513;42.662;23.350;2023-05-29T11:27:51;2.83;;;2.30;;
16792;SDS011;8513;42.662;23.350;2023-05-29T11:30:18;2.35;;;2.00;;
16792;SDS011;8513;42.662;23.350;2023-05-29T11:32:44;2.47;;;2.28;;
16792;SDS011;8513;42.662;23.350;2023-05-29T11:35:11;2.08;;;1.90;;
16792;SDS011;8513;42.662;23.350;2023-05-29T11:37:38;2.40;;;2.20;;
16792;SDS011;8513;42.662;23.350;2023-05-29T11:40:07;2.67;;;2.00;;
16792;SDS011;8513;42.662;23.350;2023-05-29T11:42:34;4.50;;;2.50;;
16792;SDS011;8513;42.662;23.350;2023-05-29T11:45:13;2.20;;;2.00;;
16792;SDS011;8513;42.662;23.350;2023-05-29T11:47:55;2.70;;;2.50;;
16792;SDS011;8513;42.662;23.350;2023-05-29T11:50:23;2.85;;;2.50;;
16792;SDS011;8513;42.662;23.350;2023-05-29T11:52:50;4.43;;;2.47;;
16792;SDS011;8513;42.662;23.350;2023-05-29T11:55:17;3.00;;;2.70;;
16792;SDS011;8513;42.662;23.350;2023-05-29T11:57:43;2.60;;;2.40;;
